sensor_id;sensor_type;location;lat;lon;timestamp;pressure;altitude;pressure_sealevel;temperature;humidity
43161;BME280;40968;52.342;5.528;2024-02-28T00:00:53;102023.19;;;4.38;81.06
43161;BME280;40968;52.342;5.528;2024-02-28T00:03:19;101760.88;;;2.75;80.90
43161;BME280;40968;52.342;5.528;2024-02-28T00:05:47;101688.81;;;2.30;81.09
43161;BME280;40968;52.342;5.528;2024-02-28T00:08:13;101887.41;;;3.62;81.31
43161;BME280;40968;52.342;5.528;2024-02-28T00:10:40;101718.88;;;2.62;81.14
43161;BME280;40968;52.342;5.528;2024-02-28T00:13:07;101927.41;;;3.86;81.40
43161;BME280;40968;52.342;5.528;2024-02-28T00:15:35;101731.00;;;2.71;81.14
43161;BME280;40968;52.342;5.528;2024-02-28T00:18:02;102010.03;;;4.35;81.47
43161;BME280;40968;52.342;5.528;2024-02-28T00:20:28;101752.78;;;2.81;81.39
43161;BME280;40968;52.342;5.528;2024-02-28T00:22:55;102010.03;;;4.34;81.30
43161;BME280;40968;52.342;5.528;2024-02-28T00:25:21;101947.59;;;3.90;81.57
43161;BME280;40968;52.342;5.528;2024-02-28T00:27:48;101739.91;;;2.67;81.39
43161;BME280;40968;52.342;5.528;2024-02-28T00:30:15;101747.78;;;2.70;81.54
43161;BME280;40968;52.342;5.528;2024-02-28T00:32:42;101972.06;;;4.02;81.49
43161;BME280;40968;52.342;5.528;2024-02-28T00:35:09;102013.19;;;4.17;81.76
43161;BME280;40968;52.342;5.528;2024-02-28T00:37:36;101907.28;;;3.47;81.67
43161;BME280;40968;52.342;5.528;2024-02-28T00:40:03;101716.97;;;2.35;81.91
43161;BME280;40968;52.342;5.528;2024-02-28T00:42:29;102013.50;;;4.06;81.92
43161;BME280;40968;52.342;5.528;2024-02-28T00:44:56;101962.09;;;3.78;82.12
43161;BME280;40968;52.342;5.528;2024-02-28T00:47:22;101812.31;;;2.66;82.29
43161;BME280;40968;52.342;5.528;2024-02-28T00:49:51;102026.88;;;4.03;82.43
43161;BME280;40968;52.342;5.528;2024-02-28T00:52:17;101873.44;;;3.24;82.37
43161;BME280;40968;52.342;5.528;2024-02-28T00:54:44;101766.47;;;2.29;82.31
43161;BME280;40968;52.342;5.528;2024-02-28T00:57:10;101624.56;;;1.58;82.15
43161;BME280;40968;52.342;5.528;2024-02-28T00:59:37;101651.59;;;1.68;81.94
43161;BME280;40968;52.342;5.528;2024-02-28T01:02:04;101695.19;;;1.87;82.57
43161;BME280;40968;52.342;5.528;2024-02-28T01:04:30;101934.63;;;3.48;82.90
43161;BME280;40968;52.342;5.528;2024-02-28T01:06:58;101714.31;;;1.98;82.80
43161;BME280;40968;52.342;5.528;2024-02-28T01:09:25;101792.13;;;2.60;82.87
43161;BME280;40968;52.342;5.528;2024-02-28T01:11:51;101588.44;;;1.21;83.05
43161;BME280;40968;52.342;5.528;2024-02-28T01:14:18;101659.75;;;1.60;82.70
43161;BME280;40968;52.342;5.528;2024-02-28T01:16:44;102002.97;;;3.71;83.23
43161;BME280;40968;52.342;5.528;2024-02-28T01:19:11;101721.63;;;1.87;83.32
43161;BME280;40968;52.342;5.528;2024-02-28T01:21:38;101722.34;;;1.95;83.51
43161;BME280;40968;52.342;5.528;2024-02-28T01:24:06;101799.50;;;2.47;83.53
43161;BME280;40968;52.342;5.528;2024-02-28T01:26:33;102024.28;;;3.67;83.63
43161;BME280;40968;52.342;5.528;2024-02-28T01:29:00;101735.38;;;2.03;83.56
43161;BME280;40968;52.342;5.528;2024-02-28T01:31:26;101907.53;;;3.04;83.64
43161;BME280;40968;52.342;5.528;2024-02-28T01:33:53;101998.91;;;3.56;84.22
43161;BME280;40968;52.342;5.528;2024-02-28T01:36:20;101768.47;;;2.20;84.39
43161;BME280;40968;52.342;5.528;2024-02-28T01:38:47;101752.41;;;1.91;84.25
43161;BME280;40968;52.342;5.528;2024-02-28T01:41:15;101699.19;;;1.68;84.26
43161;BME280;40968;52.342;5.528;2024-02-28T01:43:42;101985.59;;;3.25;84.49
43161;BME280;40968;52.342;5.528;2024-02-28T01:46:20;101994.78;;;3.46;84.58
43161;BME280;40968;52.342;5.528;2024-02-28T01:48:48;101738.47;;;1.83;84.74
43161;BME280;40968;52.342;5.528;2024-02-28T01:51:15;101703.22;;;1.45;84.92
43161;BME280;40968;52.342;5.528;2024-02-28T01:53:42;101739.75;;;1.67;84.82
43161;BME280;40968;52.342;5.528;2024-02-28T01:56:10;101743.06;;;1.75;85.01
43161;BME280;40968;52.342;5.528;2024-02-28T01:58:38;101894.47;;;2.61;85.38
43161;BME280;40968;52.342;5.528;2024-02-28T02:01:05;101755.22;;;1.82;85.46
43161;BME280;40968;52.342;5.528;2024-02-28T02:03:32;101939.78;;;2.85;85.70
43161;BME280;40968;52.342;5.528;2024-02-28T02:06:00;101720.63;;;1.55;85.38
43161;BME280;40968;52.342;5.528;2024-02-28T02:08:27;101729.28;;;1.62;85.91
43161;BME280;40968;52.342;5.528;2024-02-28T02:10:54;101712.81;;;1.49;85.64
43161;BME280;40968;52.342;5.528;2024-02-28T02:13:21;101818.06;;;2.10;85.73
43161;BME280;40968;52.342;5.528;2024-02-28T02:15:49;101603.38;;;0.81;85.85
43161;BME280;40968;52.342;5.528;2024-02-28T02:18:16;101706.88;;;1.39;86.19
43161;BME280;40968;52.342;5.528;2024-02-28T02:20:44;102002.53;;;3.19;86.39
43161;BME280;40968;52.342;5.528;2024-02-28T02:23:14;101775.44;;;1.85;86.23
43161;BME280;40968;52.342;5.528;2024-02-28T02:25:44;101920.09;;;2.59;86.35
43161;BME280;40968;52.342;5.528;2024-02-28T02:28:11;101898.22;;;2.51;86.25
43161;BME280;40968;52.342;5.528;2024-02-28T02:30:38;101665.03;;;1.19;86.00
43161;BME280;40968;52.342;5.528;2024-02-28T02:33:04;101676.53;;;1.18;86.02
43161;BME280;40968;52.342;5.528;2024-02-28T02:35:31;102003.28;;;3.24;86.30
43161;BME280;40968;52.342;5.528;2024-02-28T02:37:58;101751.81;;;1.78;86.21
43161;BME280;40968;52.342;5.528;2024-02-28T02:40:26;101986.72;;;3.16;86.25
43161;BME280;40968;52.342;5.528;2024-02-28T02:42:52;101821.63;;;2.09;86.26
43161;BME280;40968;52.342;5.528;2024-02-28T02:45:19;101725.69;;;1.64;85.94
43161;BME280;40968;52.342;5.528;2024-02-28T02:47:45;101791.84;;;2.01;85.83
43161;BME280;40968;52.342;5.528;2024-02-28T02:50:12;101656.50;;;1.08;85.83
43161;BME280;40968;52.342;5.528;2024-02-28T02:52:38;101992.06;;;3.13;86.11
43161;BME280;40968;52.342;5.528;2024-02-28T02:55:06;101932.78;;;2.82;86.04
43161;BME280;40968;52.342;5.528;2024-02-28T02:57:35;101981.66;;;3.07;85.86
43161;BME280;40968;52.342;5.528;2024-02-28T03:00:02;101762.69;;;1.64;86.21
43161;BME280;40968;52.342;5.528;2024-02-28T03:02:29;101982.59;;;3.04;86.39
43161;BME280;40968;52.342;5.528;2024-02-28T03:04:55;101732.84;;;1.59;86.12
43161;BME280;40968;52.342;5.528;2024-02-28T03:07:22;101594.97;;;0.63;85.79
43161;BME280;40968;52.342;5.528;2024-02-28T03:09:48;101956.59;;;2.82;86.29
43161;BME280;40968;52.342;5.528;2024-02-28T03:12:15;101978.28;;;2.98;86.24
43161;BME280;40968;52.342;5.528;2024-02-28T03:14:43;101980.03;;;2.99;86.62
43161;BME280;40968;52.342;5.528;2024-02-28T03:17:09;101920.00;;;2.64;86.74
43161;BME280;40968;52.342;5.528;2024-02-28T03:19:36;101641.59;;;1.05;86.32
43161;BME280;40968;52.342;5.528;2024-02-28T03:22:04;101729.53;;;1.51;86.54
43161;BME280;40968;52.342;5.528;2024-02-28T03:24:30;101970.25;;;3.03;86.81
43161;BME280;40968;52.342;5.528;2024-02-28T03:26:57;101651.03;;;1.17;86.67
43161;BME280;40968;52.342;5.528;2024-02-28T03:29:23;101972.00;;;3.04;87.04
43161;BME280;40968;52.342;5.528;2024-02-28T03:31:51;101721.47;;;1.57;86.96
43161;BME280;40968;52.342;5.528;2024-02-28T03:34:18;101694.81;;;1.27;86.71
43161;BME280;40968;52.342;5.528;2024-02-28T03:36:45;101769.22;;;1.87;86.94
43161;BME280;40968;52.342;5.528;2024-02-28T03:39:12;101667.84;;;1.13;86.93
43161;BME280;40968;52.342;5.528;2024-02-28T03:41:38;101921.59;;;2.71;87.22
43161;BME280;40968;52.342;5.528;2024-02-28T03:44:05;101761.44;;;1.81;87.01
43161;BME280;40968;52.342;5.528;2024-02-28T03:46:32;101706.72;;;1.47;87.13
43161;BME280;40968;52.342;5.528;2024-02-28T03:49:00;101894.59;;;2.55;87.42
43161;BME280;40968;52.342;5.528;2024-02-28T03:51:26;101796.19;;;2.02;87.16
43161;BME280;40968;52.342;5.528;2024-02-28T03:53:53;101783.28;;;1.89;87.49
43161;BME280;40968;52.342;5.528;2024-02-28T03:56:23;101976.13;;;3.16;87.83
43161;BME280;40968;52.342;5.528;2024-02-28T03:58:50;101741.25;;;1.77;87.45
43161;BME280;40968;52.342;5.528;2024-02-28T04:01:17;101976.94;;;3.18;88.00
43161;BME280;40968;52.342;5.528;2024-02-28T04:03:43;101883.06;;;2.58;87.56
43161;BME280;40968;52.342;5.528;2024-02-28T04:06:11;101928.28;;;2.86;87.39
43161;BME280;40968;52.342;5.528;2024-02-28T04:08:40;101677.03;;;1.36;87.38
43161;BME280;40968;52.342;5.528;2024-02-28T04:11:07;101649.47;;;1.07;87.42
43161;BME280;40968;52.342;5.528;2024-02-28T04:13:34;101978.81;;;3.14;87.67
43161;BME280;40968;52.342;5.528;2024-02-28T04:16:01;101989.28;;;3.19;87.70
43161;BME280;40968;52.342;5.528;2024-02-28T04:18:29;101653.22;;;0.96;87.52
43161;BME280;40968;52.342;5.528;2024-02-28T04:20:56;101686.31;;;1.13;87.42
43161;BME280;40968;52.342;5.528;2024-02-28T04:23:24;101706.72;;;1.47;87.70
43161;BME280;40968;52.342;5.528;2024-02-28T04:25:50;101698.06;;;1.39;87.59
43161;BME280;40968;52.342;5.528;2024-02-28T04:28:17;101994.47;;;3.22;87.95
43161;BME280;40968;52.342;5.528;2024-02-28T04:30:44;101774.66;;;1.81;87.74
43161;BME280;40968;52.342;5.528;2024-02-28T04:33:10;101991.84;;;3.22;88.02
43161;BME280;40968;52.342;5.528;2024-02-28T04:35:37;101991.78;;;3.25;88.20
43161;BME280;40968;52.342;5.528;2024-02-28T04:38:03;101958.75;;;3.04;88.12
43161;BME280;40968;52.342;5.528;2024-02-28T04:40:31;101953.50;;;3.03;88.03
43161;BME280;40968;52.342;5.528;2024-02-28T04:42:58;101632.47;;;1.20;87.76
43161;BME280;40968;52.342;5.528;2024-02-28T04:45:25;101872.44;;;2.59;87.89
43161;BME280;40968;52.342;5.528;2024-02-28T04:47:51;101998.66;;;3.32;87.98
43161;BME280;40968;52.342;5.528;2024-02-28T04:50:19;102023.34;;;3.35;88.17
43161;BME280;40968;52.342;5.528;2024-02-28T04:52:46;101651.63;;;1.28;87.95
43161;BME280;40968;52.342;5.528;2024-02-28T04:55:12;101972.63;;;3.14;88.20
43161;BME280;40968;52.342;5.528;2024-02-28T04:57:41;101762.94;;;1.93;88.04
43161;BME280;40968;52.342;5.528;2024-02-28T05:00:08;101674.22;;;1.43;87.95
43161;BME280;40968;52.342;5.528;2024-02-28T05:02:35;101685.63;;;1.44;88.08
43161;BME280;40968;52.342;5.528;2024-02-28T05:05:01;101692.31;;;1.60;87.87
43161;BME280;40968;52.342;5.528;2024-02-28T05:07:28;101668.84;;;1.46;88.04
43161;BME280;40968;52.342;5.528;2024-02-28T05:09:54;101746.69;;;1.71;88.09
43161;BME280;40968;52.342;5.528;2024-02-28T05:12:21;101697.53;;;1.63;88.04
43161;BME280;40968;52.342;5.528;2024-02-28T05:14:49;101665.38;;;1.44;88.02
43161;BME280;40968;52.342;5.528;2024-02-28T05:17:15;102004.47;;;3.47;88.27
43161;BME280;40968;52.342;5.528;2024-02-28T05:19:42;101674.81;;;1.56;88.17
43161;BME280;40968;52.342;5.528;2024-02-28T05:22:09;101700.78;;;1.75;88.21
43161;BME280;40968;52.342;5.528;2024-02-28T05:24:36;101745.16;;;1.99;88.31
43161;BME280;40968;52.342;5.528;2024-02-28T05:27:03;101521.25;;;0.56;88.09
43161;BME280;40968;52.342;5.528;2024-02-28T05:29:29;101705.13;;;1.77;88.30
43161;BME280;40968;52.342;5.528;2024-02-28T05:31:57;102033.22;;;3.62;88.68
43161;BME280;40968;52.342;5.528;2024-02-28T05:34:24;101693.34;;;1.55;88.46
43161;BME280;40968;52.342;5.528;2024-02-28T05:36:50;101716.38;;;1.86;88.48
43161;BME280;40968;52.342;5.528;2024-02-28T05:39:17;101637.31;;;1.40;88.43
43161;BME280;40968;52.342;5.528;2024-02-28T05:41:43;101912.13;;;2.97;88.67
43161;BME280;40968;52.342;5.528;2024-02-28T05:44:10;101671.09;;;1.63;88.46
43161;BME280;40968;52.342;5.528;2024-02-28T05:46:37;101660.22;;;1.38;88.47
43161;BME280;40968;52.342;5.528;2024-02-28T05:49:04;101724.91;;;1.98;88.57
43161;BME280;40968;52.342;5.528;2024-02-28T05:51:31;101676.31;;;1.67;88.53
43161;BME280;40968;52.342;5.528;2024-02-28T05:53:58;101666.59;;;1.67;88.52
43161;BME280;40968;52.342;5.528;2024-02-28T05:56:24;101733.81;;;1.94;88.78
43161;BME280;40968;52.342;5.528;2024-02-28T05:58:51;101900.47;;;3.04;89.01
43161;BME280;40968;52.342;5.528;2024-02-28T06:01:18;101922.25;;;3.15;88.84
43161;BME280;40968;52.342;5.528;2024-02-28T06:03:45;101533.03;;;0.81;88.96
43161;BME280;40968;52.342;5.528;2024-02-28T06:06:13;101727.69;;;1.92;89.05
43161;BME280;40968;52.342;5.528;2024-02-28T06:08:40;101701.47;;;1.83;88.89
43161;BME280;40968;52.342;5.528;2024-02-28T06:11:07;101716.34;;;1.89;88.92
43161;BME280;40968;52.342;5.528;2024-02-28T06:13:35;101627.97;;;1.24;89.14
43161;BME280;40968;52.342;5.528;2024-02-28T06:16:02;101575.78;;;0.97;88.63
43161;BME280;40968;52.342;5.528;2024-02-28T06:18:29;101908.72;;;2.92;89.29
43161;BME280;40968;52.342;5.528;2024-02-28T06:20:58;101732.72;;;2.03;89.07
43161;BME280;40968;52.342;5.528;2024-02-28T06:23:27;101944.84;;;3.30;89.22
43161;BME280;40968;52.342;5.528;2024-02-28T06:25:53;102023.13;;;3.77;89.28
43161;BME280;40968;52.342;5.528;2024-02-28T06:28:20;102024.88;;;3.78;89.42
43161;BME280;40968;52.342;5.528;2024-02-28T06:30:47;101871.81;;;2.86;89.31
43161;BME280;40968;52.342;5.528;2024-02-28T06:33:13;101969.16;;;3.46;89.29
43161;BME280;40968;52.342;5.528;2024-02-28T06:35:40;101955.25;;;3.38;89.12
43161;BME280;40968;52.342;5.528;2024-02-28T06:38:07;102023.19;;;3.75;89.42
43161;BME280;40968;52.342;5.528;2024-02-28T06:40:35;101732.19;;;1.87;89.24
43161;BME280;40968;52.342;5.528;2024-02-28T06:43:02;101745.38;;;1.90;89.02
43161;BME280;40968;52.342;5.528;2024-02-28T06:45:30;101786.34;;;2.10;89.27
43161;BME280;40968;52.342;5.528;2024-02-28T06:47:57;101730.69;;;1.77;89.31
43161;BME280;40968;52.342;5.528;2024-02-28T06:50:23;102050.75;;;3.70;89.73
43161;BME280;40968;52.342;5.528;2024-02-28T06:52:50;101889.09;;;2.64;89.36
43161;BME280;40968;52.342;5.528;2024-02-28T06:55:19;101634.19;;;1.21;89.41
43161;BME280;40968;52.342;5.528;2024-02-28T06:57:46;101944.94;;;2.91;89.71
43161;BME280;40968;52.342;5.528;2024-02-28T07:00:13;101885.91;;;2.50;89.51
43161;BME280;40968;52.342;5.528;2024-02-28T07:02:41;101859.59;;;2.44;89.82
43161;BME280;40968;52.342;5.528;2024-02-28T07:05:08;101802.22;;;2.10;89.84
43161;BME280;40968;52.342;5.528;2024-02-28T07:07:34;101844.00;;;2.31;89.90
43161;BME280;40968;52.342;5.528;2024-02-28T07:10:02;101752.72;;;1.77;90.09
43161;BME280;40968;52.342;5.528;2024-02-28T07:12:29;102081.47;;;3.77;90.26
43161;BME280;40968;52.342;5.528;2024-02-28T07:14:57;101813.56;;;2.13;90.19
43161;BME280;40968;52.342;5.528;2024-02-28T07:17:24;102080.56;;;3.78;90.10
43161;BME280;40968;52.342;5.528;2024-02-28T07:19:51;102017.91;;;3.41;90.24
43161;BME280;40968;52.342;5.528;2024-02-28T07:22:17;101881.41;;;2.54;90.25
43161;BME280;40968;52.342;5.528;2024-02-28T07:24:44;101833.56;;;2.25;90.05
43161;BME280;40968;52.342;5.528;2024-02-28T07:27:10;101836.97;;;2.30;90.23
43161;BME280;40968;52.342;5.528;2024-02-28T07:29:37;101788.28;;;2.02;90.26
43161;BME280;40968;52.342;5.528;2024-02-28T07:32:05;101760.53;;;1.82;90.16
43161;BME280;40968;52.342;5.528;2024-02-28T07:34:32;102026.75;;;3.40;90.40
43161;BME280;40968;52.342;5.528;2024-02-28T07:36:59;102069.41;;;3.65;90.51
43161;BME280;40968;52.342;5.528;2024-02-28T07:39:26;102099.97;;;3.80;90.48
43161;BME280;40968;52.342;5.528;2024-02-28T07:41:53;101849.31;;;2.31;90.62
43161;BME280;40968;52.342;5.528;2024-02-28T07:44:19;102062.59;;;3.55;90.59
43161;BME280;40968;52.342;5.528;2024-02-28T07:46:46;102063.47;;;3.55;90.74
43161;BME280;40968;52.342;5.528;2024-02-28T07:49:14;102096.56;;;3.75;90.79
43161;BME280;40968;52.342;5.528;2024-02-28T07:51:41;101849.56;;;2.21;90.74
43161;BME280;40968;52.342;5.528;2024-02-28T07:54:07;101957.63;;;2.77;90.87
43161;BME280;40968;52.342;5.528;2024-02-28T07:56:34;101865.91;;;2.38;90.81
43161;BME280;40968;52.342;5.528;2024-02-28T07:59:00;102073.84;;;3.64;91.11
43161;BME280;40968;52.342;5.528;2024-02-28T08:01:27;101941.53;;;2.86;90.93
43161;BME280;40968;52.342;5.528;2024-02-28T08:03:54;101857.13;;;2.36;90.99
43161;BME280;40968;52.342;5.528;2024-02-28T08:06:22;102013.59;;;3.35;91.32
43161;BME280;40968;52.342;5.528;2024-02-28T08:08:48;101941.28;;;2.95;91.47
43161;BME280;40968;52.342;5.528;2024-02-28T08:11:15;101871.72;;;2.54;91.35
43161;BME280;40968;52.342;5.528;2024-02-28T08:13:42;102136.28;;;4.11;91.79
43161;BME280;40968;52.342;5.528;2024-02-28T08:16:09;102078.66;;;3.83;91.64
43161;BME280;40968;52.342;5.528;2024-02-28T08:18:36;101900.97;;;2.84;91.48
43161;BME280;40968;52.342;5.528;2024-02-28T08:21:03;101889.59;;;2.80;91.48
43161;BME280;40968;52.342;5.528;2024-02-28T08:23:31;102135.88;;;4.26;91.61
43161;BME280;40968;52.342;5.528;2024-02-28T08:25:57;101880.06;;;2.73;91.50
43161;BME280;40968;52.342;5.528;2024-02-28T08:28:24;102016.63;;;3.56;91.40
43161;BME280;40968;52.342;5.528;2024-02-28T08:30:51;101902.56;;;2.91;91.45
43161;BME280;40968;52.342;5.528;2024-02-28T08:33:17;102139.25;;;4.33;91.59
43161;BME280;40968;52.342;5.528;2024-02-28T08:35:44;101949.78;;;3.10;91.50
43161;BME280;40968;52.342;5.528;2024-02-28T08:38:11;102152.31;;;4.41;91.76
43161;BME280;40968;52.342;5.528;2024-02-28T08:40:39;102111.16;;;4.24;91.96
43161;BME280;40968;52.342;5.528;2024-02-28T08:43:05;102123.41;;;4.30;91.91
43161;BME280;40968;52.342;5.528;2024-02-28T08:45:32;101896.31;;;2.94;91.66
43161;BME280;40968;52.342;5.528;2024-02-28T08:47:59;101952.69;;;3.34;91.64
43161;BME280;40968;52.342;5.528;2024-02-28T08:50:26;102163.25;;;4.61;91.90
43161;BME280;40968;52.342;5.528;2024-02-28T08:52:53;102012.69;;;3.71;91.83
43161;BME280;40968;52.342;5.528;2024-02-28T08:55:19;102017.06;;;3.72;91.49
43161;BME280;40968;52.342;5.528;2024-02-28T08:57:48;102157.69;;;4.71;91.72
43161;BME280;40968;52.342;5.528;2024-02-28T09:00:15;101857.34;;;2.99;91.62
43161;BME280;40968;52.342;5.528;2024-02-28T09:02:43;101757.50;;;2.35;91.34
43161;BME280;40968;52.342;5.528;2024-02-28T09:05:09;101921.69;;;3.37;91.50
43161;BME280;40968;52.342;5.528;2024-02-28T09:07:36;101941.69;;;3.49;91.32
43161;BME280;40968;52.342;5.528;2024-02-28T09:10:03;102151.09;;;4.84;91.72
43161;BME280;40968;52.342;5.528;2024-02-28T09:12:30;102068.38;;;4.37;91.61
43161;BME280;40968;52.342;5.528;2024-02-28T09:14:58;102146.47;;;4.91;91.90
43161;BME280;40968;52.342;5.528;2024-02-28T09:17:25;101954.81;;;3.85;91.63
43161;BME280;40968;52.342;5.528;2024-02-28T09:19:52;102152.63;;;4.93;92.02
43161;BME280;40968;52.342;5.528;2024-02-28T09:22:19;101857.38;;;3.30;91.69
43161;BME280;40968;52.342;5.528;2024-02-28T09:24:46;101989.44;;;4.12;91.67
43161;BME280;40968;52.342;5.528;2024-02-28T09:27:13;102006.69;;;4.28;91.93
43161;BME280;40968;52.342;5.528;2024-02-28T09:29:39;102036.81;;;4.57;91.82
43161;BME280;40968;52.342;5.528;2024-02-28T09:32:08;101913.28;;;3.86;91.54
43161;BME280;40968;52.342;5.528;2024-02-28T09:34:35;102004.44;;;4.44;91.60
43161;BME280;40968;52.342;5.528;2024-02-28T09:37:01;101716.06;;;2.69;91.15
43161;BME280;40968;52.342;5.528;2024-02-28T09:39:29;102091.00;;;5.10;91.47
43161;BME280;40968;52.342;5.528;2024-02-28T09:41:56;102110.81;;;5.28;91.27
43161;BME280;40968;52.342;5.528;2024-02-28T09:44:23;102132.44;;;5.44;91.18
43161;BME280;40968;52.342;5.528;2024-02-28T09:46:51;101980.84;;;4.63;91.02
43161;BME280;40968;52.342;5.528;2024-02-28T09:49:19;101947.81;;;4.44;91.03
43161;BME280;40968;52.342;5.528;2024-02-28T09:51:49;102126.66;;;5.58;91.05
43161;BME280;40968;52.342;5.528;2024-02-28T09:54:16;102136.00;;;5.71;90.75
43161;BME280;40968;52.342;5.528;2024-02-28T09:56:42;102143.97;;;5.71;90.61
43161;BME280;40968;52.342;5.528;2024-02-28T09:59:10;101809.28;;;3.74;90.42
43161;BME280;40968;52.342;5.528;2024-02-28T10:01:42;101946.09;;;4.43;90.63
43161;BME280;40968;52.342;5.528;2024-02-28T10:04:09;101912.72;;;4.34;90.21
43161;BME280;40968;52.342;5.528;2024-02-28T10:06:39;102098.38;;;5.55;90.11
43161;BME280;40968;52.342;5.528;2024-02-28T10:09:06;102066.16;;;5.38;90.08
43161;BME280;40968;52.342;5.528;2024-02-28T10:11:32;102109.34;;;5.73;90.07
43161;BME280;40968;52.342;5.528;2024-02-28T10:14:01;101909.66;;;4.46;89.73
43161;BME280;40968;52.342;5.528;2024-02-28T10:16:28;102111.69;;;5.82;89.99
43161;BME280;40968;52.342;5.528;2024-02-28T10:18:55;101972.91;;;4.90;89.67
43161;BME280;40968;52.342;5.528;2024-02-28T10:21:21;102149.56;;;6.17;89.48
43161;BME280;40968;52.342;5.528;2024-02-28T10:23:50;102073.78;;;5.75;89.37
43161;BME280;40968;52.342;5.528;2024-02-28T10:26:17;102107.38;;;6.05;89.30
43161;BME280;40968;52.342;5.528;2024-02-28T10:28:44;102043.75;;;5.72;89.24
43161;BME280;40968;52.342;5.528;2024-02-28T10:31:10;101920.78;;;5.13;88.40
43161;BME280;40968;52.342;5.528;2024-02-28T10:33:37;102101.31;;;6.26;88.33
43161;BME280;40968;52.342;5.528;2024-02-28T10:36:04;102145.31;;;6.62;88.18
43161;BME280;40968;52.342;5.528;2024-02-28T10:38:31;101941.22;;;5.38;87.94
43161;BME280;40968;52.342;5.528;2024-02-28T10:41:00;101957.41;;;5.57;87.06
43161;BME280;40968;52.342;5.528;2024-02-28T10:43:28;102118.75;;;6.59;86.78
43161;BME280;40968;52.342;5.528;2024-02-28T10:45:57;101905.94;;;5.32;86.17
43161;BME280;40968;52.342;5.528;2024-02-28T10:48:24;102153.31;;;6.86;86.18
43161;BME280;40968;52.342;5.528;2024-02-28T10:50:52;101977.22;;;5.97;85.82
43161;BME280;40968;52.342;5.528;2024-02-28T10:53:22;101887.34;;;5.32;85.48
43161;BME280;40968;52.342;5.528;2024-02-28T10:55:51;101899.97;;;5.51;85.46
43161;BME280;40968;52.342;5.528;2024-02-28T10:58:24;101960.31;;;6.00;85.16
43161;BME280;40968;52.342;5.528;2024-02-28T11:00:51;101901.38;;;5.61;84.94
43161;BME280;40968;52.342;5.528;2024-02-28T11:03:18;101845.44;;;5.39;84.36
43161;BME280;40968;52.342;5.528;2024-02-28T11:05:45;101976.88;;;6.32;84.26
43161;BME280;40968;52.342;5.528;2024-02-28T11:08:20;101894.16;;;5.89;84.07
43161;BME280;40968;52.342;5.528;2024-02-28T11:10:47;101941.81;;;6.20;83.60
43161;BME280;40968;52.342;5.528;2024-02-28T11:13:25;101986.44;;;6.59;83.23
43161;BME280;40968;52.342;5.528;2024-02-28T11:15:52;102098.56;;;7.45;82.89
43161;BME280;40968;52.342;5.528;2024-02-28T11:18:20;102051.31;;;7.26;82.68
43161;BME280;40968;52.342;5.528;2024-02-28T11:20:47;102125.72;;;7.77;82.56
43161;BME280;40968;52.342;5.528;2024-02-28T11:23:17;101909.31;;;6.56;82.35
43161;BME280;40968;52.342;5.528;2024-02-28T11:25:43;102107.91;;;7.98;82.11
43161;BME280;40968;52.342;5.528;2024-02-28T11:28:10;102132.88;;;8.18;81.38
43161;BME280;40968;52.342;5.528;2024-02-28T11:30:38;102127.25;;;8.24;81.18
43161;BME280;40968;52.342;5.528;2024-02-28T11:33:05;101962.50;;;7.24;80.35
43161;BME280;40968;52.342;5.528;2024-02-28T11:35:33;102132.56;;;8.25;80.62
43161;BME280;40968;52.342;5.528;2024-02-28T11:38:00;102138.56;;;8.30;80.59
43161;BME280;40968;52.342;5.528;2024-02-28T11:40:27;101711.03;;;5.78;80.14
43161;BME280;40968;52.342;5.528;2024-02-28T11:42:54;101882.47;;;6.83;80.54
43161;BME280;40968;52.342;5.528;2024-02-28T11:45:21;102011.22;;;7.71;80.14
43161;BME280;40968;52.342;5.528;2024-02-28T11:47:49;102078.88;;;8.11;80.34
43161;BME280;40968;52.342;5.528;2024-02-28T11:50:16;102119.31;;;8.43;80.18
43161;BME280;40968;52.342;5.528;2024-02-28T11:52:44;102138.69;;;8.48;79.96
43161;BME280;40968;52.342;5.528;2024-02-28T11:55:11;102116.31;;;8.51;79.63
43161;BME280;40968;52.342;5.528;2024-02-28T11:57:37;102116.09;;;8.55;79.71
43161;BME280;40968;52.342;5.528;2024-02-28T12:00:05;101987.06;;;7.74;79.89
43161;BME280;40968;52.342;5.528;2024-02-28T12:02:33;102007.97;;;8.04;79.61
43161;BME280;40968;52.342;5.528;2024-02-28T12:05:05;102112.59;;;8.74;79.63
43161;BME280;40968;52.342;5.528;2024-02-28T12:07:32;102109.69;;;8.78;79.40
43161;BME280;40968;52.342;5.528;2024-02-28T12:09:59;102116.34;;;8.89;79.20
43161;BME280;40968;52.342;5.528;2024-02-28T12:12:27;101955.66;;;8.00;79.15
43161;BME280;40968;52.342;5.528;2024-02-28T12:14:58;101871.47;;;7.53;78.61
43161;BME280;40968;52.342;5.528;2024-02-28T12:17:25;102076.06;;;8.93;78.65
43161;BME280;40968;52.342;5.528;2024-02-28T12:19:51;101875.78;;;7.76;77.66
43161;BME280;40968;52.342;5.528;2024-02-28T12:22:20;102046.03;;;8.87;77.66
43161;BME280;40968;52.342;5.528;2024-02-28T12:24:46;101769.22;;;7.33;77.22
43161;BME280;40968;52.342;5.528;2024-02-28T12:27:13;102041.34;;;8.92;77.32
43161;BME280;40968;52.342;5.528;2024-02-28T12:29:39;101848.84;;;7.80;77.11
43161;BME280;40968;52.342;5.528;2024-02-28T12:32:07;102092.63;;;9.19;76.83
43161;BME280;40968;52.342;5.528;2024-02-28T12:34:34;102015.84;;;8.66;77.45
43161;BME280;40968;52.342;5.528;2024-02-28T12:37:01;102091.69;;;9.20;77.33
43161;BME280;40968;52.342;5.528;2024-02-28T12:39:29;102036.34;;;8.84;77.39
43161;BME280;40968;52.342;5.528;2024-02-28T12:41:56;102093.88;;;9.12;77.14
43161;BME280;40968;52.342;5.528;2024-02-28T12:44:22;102024.88;;;8.63;77.42
43161;BME280;40968;52.342;5.528;2024-02-28T12:46:49;101815.50;;;7.32;77.51
43161;BME280;40968;52.342;5.528;2024-02-28T12:49:16;102038.59;;;8.55;77.49
43161;BME280;40968;52.342;5.528;2024-02-28T12:51:43;102090.63;;;8.86;77.97
43161;BME280;40968;52.342;5.528;2024-02-28T12:54:11;102068.94;;;8.73;78.43
43161;BME280;40968;52.342;5.528;2024-02-28T12:56:41;101761.22;;;6.93;78.35
43161;BME280;40968;52.342;5.528;2024-02-28T12:59:09;101825.78;;;7.21;78.47